Time;durP1;ratioP1;P1;durP2;ratioP2;P2;SDS_P1;SDS_P2;PMS_P1;PMS_P2;Temp;Humidity;BMP_temperature;BMP_pressure;BME280_temperature;BME280_humidity;BME280_pressure;Samples;Min_cycle;Max_cycle;Signal;HPM_P1;HPM_P2
2021/10/31 00:01:24;;;;;;;14.13;8.40;;;11.00;99.90;;;;;;5014119;28;20204;-70
2021/10/31 00:03:51;;;;;;;14.33;7.67;;;11.00;99.90;;;;;;5014110;28;20164;-70
2021/10/31 00:06:16;;;;;;;12.97;8.33;;;10.90;99.90;;;;;;5014114;28;20431;-71
2021/10/31 00:08:42;;;;;;;9.87;7.53;;;10.90;99.90;;;;;;5014020;28;20504;-69
2021/10/31 00:11:08;;;;;;;9.93;7.10;;;10.90;99.90;;;;;;5013950;28;20168;-69
2021/10/31 00:13:35;;;;;;;10.33;7.43;;;10.90;99.90;;;;;;5013917;28;20219;-70
2021/10/31 00:16:01;;;;;;;8.10;6.60;;;10.90;99.90;;;;;;5013855;28;20253;-70
2021/10/31 00:18:26;;;;;;;10.93;8.13;;;10.90;99.90;;;;;;5013682;28;20972;-70
2021/10/31 00:20:52;;;;;;;11.63;7.13;;;10.90;99.90;;;;;;5013597;28;20779;-70
2021/10/31 00:23:17;;;;;;;10.93;8.00;;;10.90;99.90;;;;;;5012350;28;20543;-69
2021/10/31 00:25:43;;;;;;;11.20;7.70;;;10.90;99.90;;;;;;5013609;28;20168;-72
2021/10/31 00:28:08;;;;;;;15.37;7.07;;;11.00;99.90;;;;;;5012366;28;20195;-71
2021/10/31 00:30:34;;;;;;;7.77;5.83;;;11.00;99.90;;;;;;5013477;28;20172;-69
2021/10/31 00:32:59;;;;;;;11.40;7.70;;;11.00;99.90;;;;;;5012088;28;20661;-68
2021/10/31 00:35:25;;;;;;;12.73;7.73;;;11.00;99.90;;;;;;5013685;28;20172;-71
2021/10/31 00:37:50;;;;;;;11.07;8.50;;;11.00;99.90;;;;;;5013481;28;20185;-69
2021/10/31 00:40:16;;;;;;;12.40;7.30;;;11.00;99.90;;;;;;5013376;28;20188;-70
2021/10/31 00:42:42;;;;;;;10.73;7.17;;;11.10;99.90;;;;;;5013336;28;20171;-70
2021/10/31 00:45:08;;;;;;;7.57;6.77;;;11.10;99.90;;;;;;5013230;28;20171;-71
2021/10/31 00:47:33;;;;;;;12.80;8.23;;;11.10;99.90;;;;;;5013163;28;20572;-70
2021/10/31 00:49:59;;;;;;;10.97;8.07;;;11.10;99.90;;;;;;5013290;28;20416;-70
2021/10/31 00:52:27;;;;;;;8.60;7.70;;;11.10;99.90;;;;;;5013055;28;20160;-69
2021/10/31 00:54:53;;;;;;;9.50;8.03;;;11.10;99.90;;;;;;5013184;28;20179;-70
2021/10/31 00:57:19;;;;;;;8.50;7.70;;;11.10;99.90;;;;;;5013217;28;20399;-70
2021/10/31 00:59:45;;;;;;;7.90;6.10;;;11.10;99.90;;;;;;5013017;28;20960;-70
2021/10/31 01:02:12;;;;;;;12.37;8.17;;;11.10;99.90;;;;;;5012874;28;20430;-70
2021/10/31 01:04:45;;;;;;;12.53;8.63;;;11.10;99.90;;;;;;5013109;28;20164;-70
2021/10/31 01:07:24;;;;;;;12.60;7.43;;;11.10;99.90;;;;;;5013137;28;20427;-70
2021/10/31 01:10:10;;;;;;;11.87;7.30;;;11.20;99.90;;;;;;5013164;28;20403;-70
2021/10/31 01:12:51;;;;;;;14.60;8.17;;;11.20;99.90;;;;;;5012841;28;20403;-71
2021/10/31 01:15:45;;;;;;;8.53;6.73;;;11.20;99.90;;;;;;5012383;28;20392;-69
2021/10/31 01:18:57;;;;;;;9.30;5.97;;;11.20;99.90;;;;;;5012827;28;20435;-70
2021/10/31 01:22:12;;;;;;;13.60;7.70;;;11.10;99.90;;;;;;5010544;28;20911;-70
2021/10/31 01:24:47;;;;;;;8.73;5.83;;;11.20;99.90;;;;;;5011902;28;20915;-69
2021/10/31 01:27:30;;;;;;;10.07;6.50;;;11.20;99.90;;;;;;5013042;28;20398;-70
2021/10/31 01:30:08;;;;;;;10.97;6.03;;;11.20;99.90;;;;;;5012689;28;20399;-69
2021/10/31 01:32:55;;;;;;;9.63;5.90;;;11.30;99.90;;;;;;5012630;28;20470;-70
2021/10/31 01:35:48;;;;;;;7.30;5.93;;;11.30;99.90;;;;;;5012413;28;20453;-69
2021/10/31 01:38:31;;;;;;;6.80;5.33;;;11.30;99.90;;;;;;5012593;28;20427;-69
2021/10/31 01:41:09;;;;;;;7.87;7.00;;;11.30;99.90;;;;;;5012499;28;20494;-70
2021/10/31 01:43:54;;;;;;;10.13;6.27;;;11.30;99.90;;;;;;5012413;28;20902;-72
2021/10/31 01:46:40;;;;;;;9.30;5.70;;;11.30;99.90;;;;;;5012954;28;20802;-70
2021/10/31 01:49:24;;;;;;;8.97;6.40;;;11.30;99.90;;;;;;5012674;28;20441;-70
2021/10/31 01:51:54;;;;;;;8.23;7.43;;;11.30;99.90;;;;;;5013069;28;20399;-71
2021/10/31 01:54:25;;;;;;;7.60;6.80;;;11.30;99.90;;;;;;5016383;28;20494;-70
2021/10/31 01:56:55;;;;;;;10.40;6.67;;;11.20;99.90;;;;;;5018345;28;20461;-70
2021/10/31 01:59:27;;;;;;;9.53;7.50;;;11.10;99.90;;;;;;5018818;28;20458;-70
2021/10/31 02:01:55;;;;;;;9.17;6.13;;;11.10;99.90;;;;;;5018286;28;20458;-70
2021/10/31 02:04:24;;;;;;;6.67;6.00;;;11.10;99.90;;;;;;5021481;28;20430;-70
2021/10/31 02:06:51;;;;;;;11.57;7.73;;;11.10;99.90;;;;;;5021007;28;20395;-70
2021/10/31 02:09:21;;;;;;;7.90;6.70;;;11.00;99.90;;;;;;5012923;28;20933;-70
2021/10/31 02:11:48;;;;;;;9.60;6.57;;;11.00;99.90;;;;;;5012644;28;20469;-70
2021/10/31 02:14:14;;;;;;;9.60;7.50;;;11.00;99.90;;;;;;5013027;28;20408;-70
2021/10/31 02:16:41;;;;;;;9.47;6.53;;;10.90;99.90;;;;;;5013688;28;20483;-71
2021/10/31 02:19:11;;;;;;;6.50;5.23;;;10.90;99.90;;;;;;5013831;28;20569;-69
2021/10/31 02:21:38;;;;;;;6.30;5.07;;;10.90;99.90;;;;;;5013484;28;20489;-70
2021/10/31 02:24:06;;;;;;;8.40;5.77;;;10.90;99.90;;;;;;5013586;28;20403;-70
2021/10/31 02:26:34;;;;;;;11.10;6.57;;;10.90;99.90;;;;;;5016283;28;20403;-70
2021/10/31 02:29:01;;;;;;;9.00;6.20;;;10.90;99.90;;;;;;5015557;28;20434;-70
2021/10/31 02:31:28;;;;;;;7.47;6.10;;;10.90;99.90;;;;;;5016984;28;20473;-70
2021/10/31 02:33:55;;;;;;;9.13;6.23;;;10.90;99.90;;;;;;5016441;28;20403;-70
2021/10/31 02:36:20;;;;;;;6.83;5.13;;;10.90;99.90;;;;;;5015824;28;20415;-70
2021/10/31 02:38:46;;;;;;;9.43;6.20;;;10.80;99.90;;;;;;5016019;28;20433;-71
2021/10/31 02:41:12;;;;;;;9.80;5.80;;;10.90;99.90;;;;;;5016001;28;20295;-70
2021/10/31 02:43:38;;;;;;;9.13;6.13;;;11.00;99.90;;;;;;5019303;28;20655;-70
2021/10/31 02:46:04;;;;;;;5.80;5.10;;;11.00;99.90;;;;;;5017986;28;20460;-71
2021/10/31 02:48:30;;;;;;;8.93;5.63;;;11.00;99.90;;;;;;5018536;28;20454;-70
2021/10/31 02:51:09;;;;;;;7.03;5.30;;;11.00;99.90;;;;;;5015922;28;20169;-70
2021/10/31 02:53:47;;;;;;;8.10;5.33;;;11.00;99.90;;;;;;5018069;28;20403;-70
2021/10/31 02:56:25;;;;;;;9.20;6.27;;;11.10;99.90;;;;;;5018401;28;20410;-70
2021/10/31 02:59:05;;;;;;;6.63;5.40;;;11.10;99.90;;;;;;5017951;28;20442;-70
2021/10/31 03:01:31;;;;;;;9.30;6.43;;;11.10;99.90;;;;;;5020438;28;20505;-71
2021/10/31 03:03:58;;;;;;;10.20;6.43;;;11.10;99.90;;;;;;5024090;28;20411;-69
2021/10/31 03:06:25;;;;;;;9.57;5.33;;;11.00;99.90;;;;;;5016118;28;20826;-70
2021/10/31 03:08:51;;;;;;;7.43;5.40;;;11.00;99.90;;;;;;5016131;28;20427;-70
2021/10/31 03:11:16;;;;;;;7.97;5.80;;;11.00;99.90;;;;;;5016321;28;20490;-70
2021/10/31 03:13:42;;;;;;;8.13;5.67;;;11.00;99.90;;;;;;5015904;28;20510;-70
2021/10/31 03:16:08;;;;;;;8.50;5.80;;;11.00;99.90;;;;;;5016624;28;20164;-70
2021/10/31 03:18:35;;;;;;;10.00;6.33;;;11.00;99.90;;;;;;5016586;28;20336;-71
2021/10/31 03:21:01;;;;;;;7.70;6.33;;;11.10;99.90;;;;;;5015231;28;20450;-70
2021/10/31 03:23:26;;;;;;;6.80;5.83;;;11.20;99.90;;;;;;5015083;28;20408;-70
2021/10/31 03:25:52;;;;;;;8.07;5.80;;;11.20;99.90;;;;;;5015448;28;20168;-70
2021/10/31 03:28:17;;;;;;;9.97;5.70;;;11.20;99.90;;;;;;5015219;28;20278;-70
2021/10/31 03:30:43;;;;;;;6.57;4.87;;;11.20;99.90;;;;;;5014775;28;20169;-69
2021/10/31 03:33:09;;;;;;;8.70;5.27;;;11.20;99.90;;;;;;5014792;28;20173;-70
2021/10/31 03:35:35;;;;;;;6.00;4.97;;;11.20;99.90;;;;;;5014598;28;20168;-70
2021/10/31 03:38:00;;;;;;;9.90;6.17;;;11.20;99.90;;;;;;5014472;28;20192;-70
2021/10/31 03:40:26;;;;;;;6.40;4.90;;;11.20;99.90;;;;;;5013836;28;20569;-70
2021/10/31 03:42:52;;;;;;;6.70;4.67;;;11.30;99.90;;;;;;5014624;28;20174;-70
2021/10/31 03:45:17;;;;;;;8.00;6.17;;;11.30;99.90;;;;;;5014471;28;20222;-69
2021/10/31 03:47:47;;;;;;;6.70;4.90;;;11.40;99.90;;;;;;5014597;28;20206;-70
2021/10/31 03:50:14;;;;;;;7.10;4.80;;;11.40;99.90;;;;;;5014353;28;20183;-71
2021/10/31 03:52:41;;;;;;;7.63;6.10;;;11.50;99.90;;;;;;5014352;28;21003;-70
2021/10/31 03:55:07;;;;;;;7.97;6.20;;;11.50;99.90;;;;;;5012840;28;20455;-69
2021/10/31 03:57:34;;;;;;;5.30;4.20;;;11.50;99.90;;;;;;5014296;28;20423;-70
2021/10/31 04:00:00;;;;;;;7.17;5.13;;;11.50;99.90;;;;;;5014166;28;20446;-69
2021/10/31 04:02:25;;;;;;;8.10;5.67;;;11.40;99.90;;;;;;5014364;28;20443;-69
2021/10/31 04:04:51;;;;;;;8.40;5.37;;;11.40;99.90;;;;;;5014063;28;20573;-71
2021/10/31 04:07:16;;;;;;;8.87;6.07;;;11.30;99.90;;;;;;5014119;28;20177;-69
2021/10/31 04:09:42;;;;;;;10.87;5.23;;;11.30;99.90;;;;;;5013857;28;20517;-69
2021/10/31 04:12:08;;;;;;;7.23;5.43;;;11.40;99.90;;;;;;5014036;28;20172;-70
2021/10/31 04:14:33;;;;;;;8.27;5.20;;;11.40;99.90;;;;;;5013861;28;20176;-70
2021/10/31 04:16:59;;;;;;;6.23;4.13;;;11.40;99.90;;;;;;5013877;28;20275;-69
2021/10/31 04:19:24;;;;;;;7.60;5.10;;;11.40;99.90;;;;;;5013804;28;20203;-69
2021/10/31 04:21:50;;;;;;;4.60;3.80;;;11.50;99.90;;;;;;5013666;28;20196;-69
2021/10/31 04:24:17;;;;;;;6.97;4.60;;;11.40;99.90;;;;;;5013609;28;20396;-70
2021/10/31 04:26:43;;;;;;;7.60;4.77;;;11.40;99.90;;;;;;5013630;28;20163;-70
2021/10/31 04:29:09;;;;;;;6.60;4.27;;;11.40;99.90;;;;;;5013813;28;20507;-69
2021/10/31 04:31:34;;;;;;;7.47;4.73;;;11.40;99.90;;;;;;5013481;28;20914;-70
2021/10/31 04:34:00;;;;;;;9.93;5.60;;;11.40;99.90;;;;;;5013442;28;20252;-70
2021/10/31 04:36:25;;;;;;;5.67;4.23;;;11.40;99.90;;;;;;5013309;28;20237;-69
2021/10/31 04:38:54;;;;;;;8.23;6.00;;;11.40;99.90;;;;;;5013230;28;20735;-69
2021/10/31 04:41:21;;;;;;;7.60;5.23;;;11.40;99.90;;;;;;5012981;28;20234;-70
2021/10/31 04:43:46;;;;;;;5.47;4.60;;;11.40;99.90;;;;;;5013083;28;20404;-69
2021/10/31 04:46:12;;;;;;;6.20;3.60;;;11.40;99.90;;;;;;5013102;28;20917;-69
2021/10/31 04:48:37;;;;;;;5.30;3.47;;;11.40;99.90;;;;;;5012995;28;20196;-69
2021/10/31 04:51:03;;;;;;;6.43;4.60;;;11.30;99.90;;;;;;5011936;28;20777;-69
2021/10/31 04:53:28;;;;;;;9.40;4.73;;;11.30;99.90;;;;;;5013020;28;20178;-69
2021/10/31 04:55:53;;;;;;;4.90;4.40;;;11.30;99.90;;;;;;5012937;28;20168;-69
2021/10/31 04:58:19;;;;;;;6.50;4.10;;;11.30;99.90;;;;;;5012954;28;20192;-69
2021/10/31 05:00:45;;;;;;;5.37;4.87;;;11.40;99.90;;;;;;5012870;28;20228;-70
2021/10/31 05:03:11;;;;;;;5.60;4.37;;;11.40;99.90;;;;;;5013094;28;20183;-68
2021/10/31 05:05:36;;;;;;;7.00;4.80;;;11.30;99.90;;;;;;5012891;28;20539;-71
2021/10/31 05:08:03;;;;;;;10.03;4.50;;;11.30;99.90;;;;;;5012728;28;20420;-70
2021/10/31 05:10:29;;;;;;;5.03;4.37;;;11.30;99.90;;;;;;5012752;28;20176;-70
2021/10/31 05:12:54;;;;;;;8.20;4.70;;;11.30;99.90;;;;;;5012918;28;20981;-70
2021/10/31 05:15:20;;;;;;;7.70;4.60;;;11.30;99.90;;;;;;5012715;28;20172;-71
2021/10/31 05:17:46;;;;;;;7.00;4.93;;;11.30;99.90;;;;;;5012691;28;20319;-70
2021/10/31 05:20:14;;;;;;;7.60;5.00;;;11.40;99.90;;;;;;5012495;28;20422;-70
2021/10/31 05:22:40;;;;;;;5.17;3.80;;;11.40;99.90;;;;;;5012472;28;20923;-71
2021/10/31 05:25:07;;;;;;;6.90;5.00;;;11.40;99.90;;;;;;5012373;28;20411;-70
2021/10/31 05:27:34;;;;;;;6.87;4.77;;;11.40;99.90;;;;;;5012384;28;20392;-70
2021/10/31 05:30:01;;;;;;;7.97;4.80;;;11.50;99.90;;;;;;5012263;28;20399;-70
2021/10/31 05:32:37;;;;;;;6.67;4.37;;;11.50;99.90;;;;;;5012186;28;20407;-70
2021/10/31 05:35:04;;;;;;;8.57;5.17;;;11.50;99.90;;;;;;5012390;28;20409;-70
2021/10/31 05:37:39;;;;;;;7.13;5.10;;;11.50;99.90;;;;;;5012340;28;20431;-70
2021/10/31 05:40:07;;;;;;;5.80;3.83;;;11.50;99.90;;;;;;5012036;28;20557;-70
2021/10/31 05:42:33;;;;;;;9.40;4.70;;;11.60;99.90;;;;;;5012004;28;20447;-69
2021/10/31 05:44:59;;;;;;;7.67;5.10;;;11.60;99.90;;;;;;5012074;28;20473;-72
2021/10/31 05:47:24;;;;;;;7.50;5.33;;;11.60;99.90;;;;;;5012055;28;20168;-71
2021/10/31 05:49:51;;;;;;;5.20;4.70;;;11.60;99.90;;;;;;5012228;28;20170;-70
2021/10/31 05:52:17;;;;;;;9.00;5.80;;;11.60;99.90;;;;;;5011858;28;20172;-70
2021/10/31 05:54:42;;;;;;;8.23;4.60;;;11.60;99.90;;;;;;5011889;28;20832;-71
2021/10/31 05:57:08;;;;;;;7.07;4.93;;;11.70;99.90;;;;;;5011751;28;20176;-69
2021/10/31 05:59:33;;;;;;;6.53;4.00;;;11.70;99.90;;;;;;5010533;28;20199;-69
2021/10/31 06:01:59;;;;;;;5.83;4.40;;;11.70;99.90;;;;;;5020270;28;20199;-69
2021/10/31 06:04:27;;;;;;;8.10;5.30;;;11.70;99.90;;;;;;5031858;28;20176;-69
2021/10/31 06:06:53;;;;;;;6.83;5.40;;;11.70;99.90;;;;;;5031623;28;20627;-69
2021/10/31 06:09:18;;;;;;;6.50;5.43;;;11.70;99.90;;;;;;5031730;28;20426;-69
2021/10/31 06:11:44;;;;;;;8.07;5.40;;;11.80;99.90;;;;;;5036884;28;20171;-69
2021/10/31 06:14:11;;;;;;;7.47;5.30;;;11.70;99.90;;;;;;5031235;28;20497;-72
2021/10/31 06:16:37;;;;;;;7.50;4.80;;;11.70;99.90;;;;;;5039310;28;20187;-71
2021/10/31 06:19:03;;;;;;;9.13;5.30;;;11.60;99.90;;;;;;5037187;28;20457;-70
2021/10/31 06:21:28;;;;;;;8.87;5.93;;;11.60;99.90;;;;;;5031526;28;20203;-70
2021/10/31 06:23:53;;;;;;;5.47;4.90;;;11.60;99.90;;;;;;5031741;28;20174;-70
2021/10/31 06:26:19;;;;;;;7.10;6.40;;;11.60;99.90;;;;;;5032142;28;20198;-70
2021/10/31 06:28:45;;;;;;;6.53;5.00;;;11.50;99.90;;;;;;5032687;28;20195;-69
2021/10/31 06:31:10;;;;;;;7.60;4.77;;;11.50;99.90;;;;;;5031999;28;20194;-69
2021/10/31 06:33:38;;;;;;;9.13;6.40;;;11.50;99.90;;;;;;5032234;28;20518;-69
2021/10/31 06:36:04;;;;;;;6.23;5.30;;;11.60;99.90;;;;;;5032392;28;20179;-70
2021/10/31 06:38:29;;;;;;;8.53;5.30;;;11.60;99.90;;;;;;5029101;28;20461;-70
2021/10/31 06:40:55;;;;;;;7.97;6.83;;;11.60;99.90;;;;;;5028639;28;20195;-70
2021/10/31 06:43:20;;;;;;;8.47;5.53;;;11.60;99.90;;;;;;5022630;28;20177;-72
2021/10/31 06:45:46;;;;;;;6.07;4.30;;;11.60;99.90;;;;;;5012894;28;20206;-70
2021/10/31 06:48:11;;;;;;;6.63;5.00;;;11.70;99.90;;;;;;5014007;28;20627;-71
2021/10/31 06:50:37;;;;;;;6.50;5.37;;;11.70;99.90;;;;;;5012091;28;20223;-70
2021/10/31 06:53:03;;;;;;;6.37;4.77;;;11.70;99.90;;;;;;5011911;28;20177;-70
2021/10/31 06:55:29;;;;;;;7.10;5.30;;;11.80;99.90;;;;;;5013419;28;20171;-70
2021/10/31 06:57:55;;;;;;;7.37;5.13;;;11.90;99.90;;;;;;5011067;28;20192;-69
2021/10/31 07:00:21;;;;;;;9.10;5.30;;;11.90;99.90;;;;;;5011498;28;20196;-71
2021/10/31 07:02:47;;;;;;;9.00;6.50;;;12.10;99.90;;;;;;5011496;28;20431;-69
2021/10/31 07:05:13;;;;;;;9.40;6.07;;;12.10;99.90;;;;;;5011511;28;20494;-69
2021/10/31 07:07:39;;;;;;;7.87;5.57;;;12.20;99.90;;;;;;5011434;28;20514;-69
2021/10/31 07:10:05;;;;;;;8.87;5.97;;;12.20;99.90;;;;;;5011516;28;20414;-68
2021/10/31 07:12:31;;;;;;;8.23;5.77;;;12.30;99.90;;;;;;5013413;28;20180;-71
2021/10/31 07:14:57;;;;;;;6.20;5.23;;;12.30;99.90;;;;;;5013742;28;20399;-72
2021/10/31 07:17:22;;;;;;;10.00;6.17;;;12.40;99.90;;;;;;5014923;28;20188;-70
2021/10/31 07:19:48;;;;;;;6.07;4.90;;;12.50;99.90;;;;;;5015183;28;20204;-70
2021/10/31 07:22:18;;;;;;;8.50;5.40;;;12.80;99.90;;;;;;5014814;28;20377;-70
2021/10/31 07:24:47;;;;;;;6.50;5.50;;;13.10;99.90;;;;;;5014636;28;20907;-69
2021/10/31 07:27:13;;;;;;;7.47;5.60;;;13.20;99.90;;;;;;5014675;28;20990;-70
2021/10/31 07:29:39;;;;;;;6.60;5.00;;;13.20;99.90;;;;;;5014525;28;20481;-71
2021/10/31 07:32:05;;;;;;;6.23;5.40;;;13.30;99.90;;;;;;5014472;28;20407;-70
2021/10/31 07:34:31;;;;;;;8.33;5.50;;;13.60;99.90;;;;;;5014390;28;20211;-71
2021/10/31 07:36:56;;;;;;;7.00;5.73;;;13.70;99.90;;;;;;5014500;28;20427;-70
2021/10/31 07:39:22;;;;;;;8.60;5.60;;;13.70;99.90;;;;;;5025573;28;20203;-71
2021/10/31 07:41:47;;;;;;;7.50;4.90;;;13.90;99.90;;;;;;5034128;28;20183;-71
2021/10/31 07:44:13;;;;;;;8.20;4.40;;;14.10;99.90;;;;;;5033979;28;20674;-70
2021/10/31 07:46:39;;;;;;;8.57;5.30;;;14.20;99.90;;;;;;5034046;28;20171;-71
2021/10/31 07:49:04;;;;;;;9.13;6.27;;;14.00;99.90;;;;;;5033818;28;20192;-70
2021/10/31 07:51:30;;;;;;;6.37;5.40;;;14.10;99.90;;;;;;5033941;28;20163;-71
2021/10/31 07:53:56;;;;;;;5.20;4.40;;;14.50;99.90;;;;;;5033776;28;20187;-71
2021/10/31 07:56:24;;;;;;;5.63;4.73;;;15.00;99.90;;;;;;5033833;28;20885;-71
2021/10/31 07:58:55;;;;;;;6.07;4.83;;;14.90;99.90;;;;;;5033593;28;20669;-71
2021/10/31 08:01:24;;;;;;;8.93;6.40;;;15.10;99.90;;;;;;5033852;28;20855;-71
2021/10/31 08:03:51;;;;;;;6.30;5.77;;;15.10;99.90;;;;;;5033601;28;20403;-71
2021/10/31 08:06:17;;;;;;;7.27;5.23;;;15.30;99.90;;;;;;5033921;28;20461;-70
2021/10/31 08:08:43;;;;;;;8.80;6.23;;;15.40;99.90;;;;;;5033474;28;20418;-71
2021/10/31 08:11:09;;;;;;;6.07;4.90;;;15.70;99.90;;;;;;5033271;28;20437;-70
2021/10/31 08:13:35;;;;;;;6.93;6.03;;;15.80;99.90;;;;;;5033791;28;20643;-69
2021/10/31 08:16:01;;;;;;;7.20;5.60;;;15.50;99.90;;;;;;5033401;28;20415;-70
2021/10/31 08:18:28;;;;;;;7.40;6.07;;;15.50;99.90;;;;;;5033217;28;20451;-71
2021/10/31 08:20:53;;;;;;;8.50;5.87;;;15.10;99.90;;;;;;5030406;28;20658;-70
2021/10/31 08:23:19;;;;;;;7.53;5.70;;;14.90;99.90;;;;;;5013419;28;20424;-70
2021/10/31 08:25:46;;;;;;;6.70;4.83;;;14.80;99.90;;;;;;5013573;28;20170;-71
2021/10/31 08:28:13;;;;;;;7.07;5.50;;;15.20;99.90;;;;;;5013381;28;20252;-71
2021/10/31 08:30:44;;;;;;;5.17;4.07;;;15.50;99.90;;;;;;5013329;28;20435;-71
2021/10/31 08:33:22;;;;;;;6.40;5.23;;;15.90;99.90;;;;;;5013377;28;20539;-69
2021/10/31 08:35:48;;;;;;;7.83;6.10;;;15.60;99.90;;;;;;5013074;28;20437;-70
2021/10/31 08:38:14;;;;;;;6.30;5.67;;;15.90;99.90;;;;;;5013457;28;20943;-70
2021/10/31 08:40:41;;;;;;;6.83;4.87;;;15.40;99.90;;;;;;5017640;28;20325;-69
2021/10/31 08:43:08;;;;;;;8.17;5.33;;;15.50;99.90;;;;;;5020236;28;20421;-71
2021/10/31 08:45:34;;;;;;;6.07;5.17;;;16.00;99.90;;;;;;5013249;28;20525;-70
2021/10/31 08:48:00;;;;;;;5.67;4.93;;;16.30;99.90;;;;;;5030426;28;20438;-70
2021/10/31 08:50:25;;;;;;;5.70;4.73;;;16.40;99.90;;;;;;5030641;28;20435;-70
2021/10/31 08:52:51;;;;;;;7.97;4.80;;;16.70;99.90;;;;;;5024412;28;20211;-70
2021/10/31 08:55:17;;;;;;;9.53;5.80;;;16.30;99.90;;;;;;5012986;28;20173;-71
2021/10/31 08:57:42;;;;;;;7.13;5.60;;;16.30;99.90;;;;;;5012950;28;20726;-71
2021/10/31 09:00:08;;;;;;;6.03;5.20;;;16.00;99.90;;;;;;5013046;28;20192;-71
2021/10/31 09:02:35;;;;;;;6.53;5.10;;;16.00;99.90;;;;;;5013099;28;20176;-71
2021/10/31 09:05:02;;;;;;;6.33;5.10;;;15.80;99.90;;;;;;5012877;28;20409;-70
2021/10/31 09:07:27;;;;;;;5.43;4.83;;;15.80;99.90;;;;;;5012729;28;20526;-71
2021/10/31 09:09:53;;;;;;;8.10;5.43;;;15.90;99.90;;;;;;5012757;28;20414;-70
2021/10/31 09:12:18;;;;;;;9.10;6.57;;;15.70;99.90;;;;;;5012739;28;20171;-70
2021/10/31 09:14:44;;;;;;;6.27;4.90;;;15.80;99.90;;;;;;5012746;28;20173;-70
2021/10/31 09:17:09;;;;;;;5.83;5.30;;;15.90;99.90;;;;;;5012841;28;20589;-71
2021/10/31 09:19:35;;;;;;;7.07;4.90;;;15.70;99.90;;;;;;5012523;28;20193;-70
2021/10/31 09:22:02;;;;;;;6.60;5.27;;;16.40;99.90;;;;;;5012614;28;20217;-72
2021/10/31 09:24:28;;;;;;;6.63;5.63;;;16.20;99.90;;;;;;5012893;28;20406;-71
2021/10/31 09:26:54;;;;;;;7.97;5.60;;;16.40;99.90;;;;;;5012881;28;20409;-72
2021/10/31 09:29:20;;;;;;;6.53;5.17;;;16.30;99.90;;;;;;5012806;28;20432;-70
2021/10/31 09:31:46;;;;;;;7.37;6.03;;;15.90;99.90;;;;;;5018950;28;20484;-70
2021/10/31 09:34:11;;;;;;;8.80;6.90;;;15.50;99.90;;;;;;5019541;28;20174;-71
2021/10/31 09:36:37;;;;;;;8.60;7.07;;;15.50;99.90;;;;;;5015644;28;20183;-70
2021/10/31 09:39:08;;;;;;;6.77;5.50;;;15.90;99.90;;;;;;5015086;28;20301;-73
2021/10/31 09:41:35;;;;;;;7.37;5.20;;;16.00;99.90;;;;;;5018463;28;20202;-71
2021/10/31 09:44:13;;;;;;;14.00;8.90;;;16.00;99.90;;;;;;5031987;28;20402;-71
2021/10/31 09:46:39;;;;;;;9.40;6.73;;;15.80;99.90;;;;;;5032181;28;20414;-71
2021/10/31 09:49:06;;;;;;;8.13;5.77;;;15.60;99.90;;;;;;5027951;28;20465;-69
2021/10/31 09:51:31;;;;;;;7.30;5.70;;;15.60;99.90;;;;;;5031135;28;20477;-70
2021/10/31 09:53:58;;;;;;;7.30;5.63;;;15.90;99.90;;;;;;5031691;28;20405;-71
2021/10/31 09:56:24;;;;;;;8.33;6.83;;;15.80;99.90;;;;;;5018140;28;20272;-70
2021/10/31 09:58:52;;;;;;;8.63;5.67;;;15.80;99.90;;;;;;5012071;28;20590;-70
2021/10/31 10:04:34;;;;;;;6.93;5.37;;;16.00;99.90;;;;;;5014600;28;20992;-71
2021/10/31 10:07:02;;;;;;;7.27;5.50;;;16.00;99.90;;;;;;5015448;28;20428;-71
2021/10/31 10:09:30;;;;;;;7.10;5.47;;;16.10;99.90;;;;;;5031964;28;20430;-71
2021/10/31 10:11:56;;;;;;;6.67;5.93;;;16.30;99.90;;;;;;5031857;28;20895;-71
2021/10/31 10:14:27;;;;;;;6.83;5.43;;;16.10;99.90;;;;;;5031357;28;20409;-72
2021/10/31 10:17:11;;;;;;;6.50;5.43;;;16.20;99.90;;;;;;5030798;28;20428;-70
2021/10/31 10:20:00;;;;;;;7.37;6.07;;;16.00;99.90;;;;;;5031258;28;20419;-69
2021/10/31 10:22:26;;;;;;;6.90;5.50;;;16.00;99.90;;;;;;5025893;28;20590;-70
2021/10/31 10:24:58;;;;;;;8.83;5.30;;;16.10;99.90;;;;;;5011425;28;20695;-69
2021/10/31 10:27:27;;;;;;;6.67;4.53;;;16.10;99.90;;;;;;5011564;28;20413;-72
2021/10/31 10:29:53;;;;;;;7.17;6.10;;;16.20;99.90;;;;;;5011792;28;20432;-72
2021/10/31 10:32:21;;;;;;;6.37;5.73;;;16.20;99.90;;;;;;5013838;28;20982;-69
2021/10/31 10:34:49;;;;;;;9.20;6.00;;;16.40;99.90;;;;;;5031319;28;20412;-70
2021/10/31 10:37:25;;;;;;;8.50;6.77;;;16.50;99.90;;;;;;5027628;28;20413;-69
2021/10/31 10:40:06;;;;;;;9.63;5.77;;;16.50;99.90;;;;;;5023835;28;20433;-70
2021/10/31 10:42:38;;;;;;;5.80;4.87;;;16.50;99.90;;;;;;5031242;28;20430;-70
2021/10/31 10:45:07;;;;;;;9.70;5.90;;;16.50;99.90;;;;;;5031212;28;20406;-72
2021/10/31 10:47:38;;;;;;;7.10;5.80;;;16.60;99.90;;;;;;5031237;28;21203;-71
2021/10/31 10:50:04;;;;;;;6.57;4.90;;;16.70;99.90;;;;;;5034183;28;20409;-70
2021/10/31 10:52:34;;;;;;;6.07;4.47;;;16.60;99.90;;;;;;5035576;28;20409;-70
2021/10/31 10:55:19;;;;;;;8.67;5.70;;;16.80;99.90;;;;;;5035674;28;20780;-72
2021/10/31 10:58:10;;;;;;;8.50;5.10;;;16.90;99.90;;;;;;5035101;28;20462;-72
2021/10/31 11:00:56;;;;;;;5.30;4.77;;;16.90;99.90;;;;;;5032354;28;20481;-73
2021/10/31 11:03:30;;;;;;;13.27;5.53;;;16.90;99.90;;;;;;5036919;28;20899;-75
2021/10/31 11:06:03;;;;;;;6.33;5.17;;;17.10;99.90;;;;;;5019515;28;20435;-72
2021/10/31 11:08:29;;;;;;;5.50;5.00;;;17.20;99.90;;;;;;5033673;28;20507;-72
2021/10/31 11:11:10;;;;;;;5.73;4.33;;;17.30;99.90;;;;;;5034966;28;20417;-72
2021/10/31 11:13:51;;;;;;;11.90;8.27;;;17.40;99.90;;;;;;5035413;28;20256;-71
2021/10/31 11:16:17;;;;;;;9.07;6.37;;;17.50;99.90;;;;;;5034971;28;20446;-72
2021/10/31 11:18:45;;;;;;;18.70;11.63;;;17.50;99.90;;;;;;5035124;28;20541;-72
2021/10/31 11:21:11;;;;;;;11.00;8.30;;;17.40;99.90;;;;;;5034849;28;20345;-72
2021/10/31 11:23:37;;;;;;;5.93;4.87;;;17.50;99.90;;;;;;5033853;28;20418;-70
2021/10/31 11:26:04;;;;;;;5.40;4.90;;;17.50;99.90;;;;;;5015042;28;20502;-70
2021/10/31 11:28:31;;;;;;;7.97;5.43;;;17.40;99.90;;;;;;5015577;28;20426;-70
2021/10/31 11:30:57;;;;;;;6.73;4.83;;;17.40;99.90;;;;;;5013990;28;20409;-70
2021/10/31 11:33:24;;;;;;;5.70;4.60;;;17.50;99.90;;;;;;5014485;28;20414;-70
2021/10/31 11:35:52;;;;;;;4.60;3.87;;;17.60;99.90;;;;;;5014932;28;20919;-70
2021/10/31 11:38:20;;;;;;;6.77;4.33;;;17.60;99.90;;;;;;5015098;28;20495;-71
2021/10/31 11:40:52;;;;;;;4.20;3.60;;;17.60;99.90;;;;;;5014845;28;20545;-71
2021/10/31 11:43:27;;;;;;;5.20;3.93;;;17.60;99.90;;;;;;5014992;28;20419;-70
2021/10/31 11:45:54;;;;;;;5.33;4.13;;;17.50;99.90;;;;;;5014870;28;20402;-70
2021/10/31 11:48:28;;;;;;;5.03;4.20;;;17.50;99.90;;;;;;5014709;28;20445;-70
2021/10/31 11:51:02;;;;;;;5.37;4.03;;;17.60;99.90;;;;;;5014823;28;20923;-69
2021/10/31 11:53:49;;;;;;;5.77;4.57;;;17.70;99.90;;;;;;5014599;28;20411;-71
2021/10/31 11:56:24;;;;;;;7.53;5.27;;;17.70;99.90;;;;;;5014734;28;20406;-70
2021/10/31 11:58:55;;;;;;;5.03;4.60;;;17.70;99.90;;;;;;5014836;28;20460;-70
2021/10/31 12:01:30;;;;;;;6.70;4.73;;;17.70;99.90;;;;;;5013716;28;20482;-71
2021/10/31 12:03:57;;;;;;;4.97;4.37;;;17.80;99.90;;;;;;5014473;28;20431;-70
2021/10/31 12:06:23;;;;;;;6.27;4.57;;;17.80;99.90;;;;;;5013176;28;20434;-70
2021/10/31 12:08:53;;;;;;;5.80;4.53;;;17.70;99.90;;;;;;5014096;28;20426;-70
2021/10/31 12:11:39;;;;;;;4.60;4.20;;;17.70;99.90;;;;;;5014188;28;20199;-70
2021/10/31 12:14:07;;;;;;;5.97;4.57;;;17.70;99.90;;;;;;5013834;28;20961;-70
2021/10/31 12:16:55;;;;;;;6.10;5.00;;;17.80;99.90;;;;;;5013987;28;20429;-70
2021/10/31 12:19:41;;;;;;;5.77;4.57;;;17.90;99.90;;;;;;5014014;28;20436;-70
2021/10/31 12:22:20;;;;;;;4.83;4.27;;;18.00;99.90;;;;;;5013922;28;20500;-71
2021/10/31 12:24:47;;;;;;;5.00;4.17;;;17.90;99.90;;;;;;5014010;28;20935;-70
2021/10/31 12:27:18;;;;;;;4.53;3.97;;;18.00;99.90;;;;;;5013819;28;20402;-70
2021/10/31 12:30:13;;;;;;;6.07;4.50;;;18.00;99.90;;;;;;5013767;28;20438;-71
2021/10/31 12:32:41;;;;;;;5.23;4.60;;;18.00;99.90;;;;;;5013633;28;20407;-71
2021/10/31 12:35:27;;;;;;;7.03;5.00;;;17.90;99.90;;;;;;5013267;28;20850;-71
2021/10/31 12:37:52;;;;;;;8.30;5.43;;;18.00;99.90;;;;;;5013509;28;20435;-70
2021/10/31 12:40:18;;;;;;;6.80;5.60;;;18.10;99.90;;;;;;5013279;28;20764;-71
2021/10/31 12:42:48;;;;;;;5.70;5.10;;;18.10;99.90;;;;;;5013217;28;20272;-71
2021/10/31 12:45:16;;;;;;;4.87;4.23;;;18.10;99.90;;;;;;5013273;28;20207;-70
2021/10/31 12:48:04;;;;;;;6.47;4.70;;;18.10;99.90;;;;;;5012966;28;21018;-70
2021/10/31 12:50:31;;;;;;;4.20;3.80;;;18.00;99.90;;;;;;5012795;28;20768;-71
2021/10/31 12:53:08;;;;;;;5.60;4.33;;;18.00;99.90;;;;;;5013100;28;20774;-70
2021/10/31 12:55:34;;;;;;;5.50;4.50;;;18.00;99.90;;;;;;5013128;28;20417;-71
2021/10/31 12:58:02;;;;;;;6.20;5.17;;;17.90;99.90;;;;;;5012816;28;20434;-69